Time;durP1;ratioP1;P1;durP2;ratioP2;P2;SDS_P1;SDS_P2;PMS_P1;PMS_P2;Temp;Humidity;BMP_temperature;BMP_pressure;BME280_temperature;BME280_humidity;BME280_pressure;Samples;Min_cycle;Max_cycle;Signal;HPM_P1;HPM_P2
2021/06/03 00:00:22;;;;;;;6.20;4.13;;;17.10;56.60;;;15.98;56.53;96302.41;5009760;28;20038;-65
2021/06/03 00:02:48;;;;;;;4.75;3.90;;;17.10;57.40;;;15.96;55.79;96304.47;5003410;28;20129;-66
2021/06/03 00:05:14;;;;;;;7.53;4.50;;;17.00;57.80;;;15.93;55.69;96311.00;4991526;28;20033;-67
2021/06/03 00:07:40;;;;;;;5.03;3.70;;;17.00;58.60;;;15.90;55.50;96305.34;4990122;28;20026;-65
2021/06/03 00:10:07;;;;;;;5.28;3.75;;;17.00;58.50;;;15.87;56.27;96309.22;5006030;28;20050;-65
2021/06/03 00:12:34;;;;;;;7.07;4.30;;;16.90;59.10;;;15.83;56.14;96305.38;4975353;28;20097;-67
2021/06/03 00:14:59;;;;;;;7.55;3.95;;;16.90;59.30;;;15.79;56.74;96312.13;4975356;28;20042;-68
2021/06/03 00:17:25;;;;;;;7.22;4.63;;;16.80;59.00;;;15.72;57.17;96308.72;4958999;28;21395;-68
2021/06/03 00:19:51;;;;;;;5.95;4.43;;;16.90;58.90;;;15.69;56.96;96308.34;5008080;28;20086;-67
2021/06/03 00:22:17;;;;;;;6.63;4.38;;;16.80;58.90;;;15.66;57.39;96320.22;5003070;28;20149;-68
2021/06/03 00:24:44;;;;;;;7.07;4.25;;;16.80;59.00;;;15.64;56.61;96316.97;5006801;28;20048;-68
2021/06/03 00:27:10;;;;;;;7.13;4.15;;;16.80;58.90;;;15.64;56.71;96316.16;4986675;28;20033;-67
2021/06/03 00:29:35;;;;;;;6.43;4.35;;;16.70;60.00;;;15.64;57.39;96316.16;4984351;28;20096;-67
2021/06/03 00:32:01;;;;;;;8.18;4.13;;;16.70;60.30;;;15.61;57.47;96317.38;4999266;28;20113;-67
2021/06/03 00:34:27;;;;;;;19.65;15.82;;;16.70;60.00;;;15.60;57.05;96318.41;4983434;28;20512;-68
2021/06/03 00:36:53;;;;;;;25.30;16.88;;;16.70;60.10;;;15.55;57.85;96324.31;4987556;28;20531;-66
2021/06/03 00:39:19;;;;;;;32.67;17.38;;;16.60;60.30;;;15.53;58.31;96314.94;5004042;28;20034;-68
2021/06/03 00:41:45;;;;;;;13.93;7.75;;;16.70;60.50;;;15.52;58.09;96323.94;5005418;28;20026;-67
2021/06/03 00:44:12;;;;;;;8.15;5.13;;;16.70;59.10;;;15.52;56.99;96313.34;4980573;28;20018;-68
2021/06/03 00:46:37;;;;;;;5.60;4.60;;;16.70;58.00;;;15.51;56.62;96317.00;4989656;28;20033;-67
2021/06/03 00:49:03;;;;;;;7.05;5.15;;;16.70;58.20;;;15.53;57.93;96313.13;4991473;28;20068;-65
2021/06/03 00:51:29;;;;;;;6.45;4.75;;;16.70;58.10;;;15.55;57.06;96318.19;4990978;28;20037;-67
2021/06/03 00:53:55;;;;;;;8.68;4.93;;;16.70;57.70;;;15.56;56.86;96314.53;4989918;28;20713;-68
2021/06/03 00:56:21;;;;;;;10.50;4.95;;;16.70;57.60;;;15.55;56.16;96319.00;4987051;28;20026;-68
2021/06/03 00:58:47;;;;;;;8.20;4.78;;;16.80;57.50;;;15.53;56.60;96326.38;4988326;28;20038;-68
2021/06/03 01:01:13;;;;;;;6.80;4.60;;;16.70;58.20;;;15.49;56.15;96322.53;5003065;28;20037;-68
2021/06/03 01:03:39;;;;;;;8.23;4.80;;;16.70;58.40;;;15.47;57.81;96335.19;5006257;28;20037;-67
2021/06/03 01:06:07;;;;;;;6.03;4.88;;;16.60;60.10;;;15.44;57.54;96332.16;4983870;28;20396;-67
2021/06/03 01:08:47;;;;;;;6.72;4.45;;;16.50;60.30;;;15.41;59.91;96338.69;4988624;28;20037;-67
2021/06/03 01:11:25;;;;;;;6.80;4.60;;;16.50;60.60;;;15.38;58.57;96343.59;4970398;28;20045;-67
2021/06/03 01:14:17;;;;;;;5.75;4.80;;;16.50;60.60;;;15.33;59.80;96352.19;4966297;28;20026;-67
2021/06/03 01:16:42;;;;;;;7.72;4.90;;;16.40;61.00;;;15.24;57.65;96353.47;4995601;28;20920;-66
2021/06/03 01:19:13;;;;;;;8.63;5.00;;;16.30;60.80;;;15.19;59.58;96353.28;4967994;28;20042;-67
2021/06/03 01:22:21;;;;;;;7.75;5.35;;;16.20;61.60;;;15.14;60.92;96359.19;4989960;28;20049;-68
2021/06/03 01:24:49;;;;;;;8.68;4.95;;;16.20;62.00;;;15.06;58.98;96351.50;5006194;28;20460;-67
2021/06/03 01:27:25;;;;;;;5.72;5.00;;;16.20;62.40;;;15.00;61.64;96361.13;4983982;28;20030;-68
2021/06/03 01:30:07;;;;;;;8.55;5.40;;;16.10;62.70;;;14.95;60.89;96360.13;4981737;28;20040;-67
2021/06/03 01:32:35;;;;;;;9.20;5.25;;;16.10;63.20;;;14.91;59.87;96361.53;4991277;28;20036;-68
2021/06/03 01:35:01;;;;;;;5.72;4.63;;;16.00;63.10;;;14.89;60.00;96360.94;4984662;28;20371;-68
2021/06/03 01:37:27;;;;;;;8.02;4.70;;;16.00;63.80;;;14.82;60.01;96378.69;4952402;28;20058;-68
2021/06/03 01:39:53;;;;;;;9.00;5.05;;;15.70;63.10;;;14.77;59.60;96373.22;4989646;28;20116;-68
2021/06/03 01:42:19;;;;;;;6.38;5.40;;;15.70;63.00;;;14.70;59.10;96381.16;5005167;28;20029;-68
2021/06/03 01:44:45;;;;;;;8.38;6.07;;;15.60;62.90;;;14.55;60.25;96386.72;5005027;28;20481;-67
2021/06/03 01:47:11;;;;;;;9.18;6.80;;;15.40;64.90;;;14.44;60.96;96384.69;4975918;28;20065;-67
2021/06/03 01:49:37;;;;;;;9.80;7.30;;;15.30;65.50;;;14.32;61.54;96387.13;4966286;28;20123;-67
2021/06/03 01:52:05;;;;;;;9.95;7.10;;;15.30;65.80;;;14.28;62.54;96385.09;4987164;28;20392;-67
2021/06/03 01:54:31;;;;;;;7.65;6.80;;;15.30;66.00;;;14.25;62.17;96380.19;4998014;28;20406;-67
2021/06/03 01:56:57;;;;;;;10.70;7.57;;;15.30;66.20;;;14.22;61.93;96386.69;4984164;28;20034;-68
2021/06/03 01:59:22;;;;;;;13.13;6.95;;;15.30;66.30;;;14.17;62.10;96388.34;4977140;28;20418;-67
2021/06/03 02:01:49;;;;;;;9.07;7.43;;;15.30;66.10;;;14.10;62.30;96388.34;5000786;28;20529;-68
2021/06/03 02:04:14;;;;;;;8.93;7.20;;;15.30;66.00;;;14.05;62.31;96381.03;5004053;28;20038;-67
2021/06/03 02:06:41;;;;;;;9.40;7.22;;;15.30;66.30;;;14.02;63.08;96378.75;5002257;28;20076;-66
2021/06/03 02:09:07;;;;;;;9.55;7.55;;;15.30;66.30;;;13.99;62.36;96379.19;5002450;28;20034;-66
2021/06/03 02:11:38;;;;;;;10.68;7.35;;;15.30;66.00;;;13.95;63.75;96370.03;4988995;28;20121;-67
2021/06/03 02:14:04;;;;;;;10.93;7.32;;;15.20;65.40;;;13.85;62.39;96369.63;4987275;28;20038;-66
2021/06/03 02:16:35;;;;;;;10.48;7.25;;;15.10;65.40;;;13.78;63.35;96374.06;4970043;28;20041;-66
2021/06/03 02:19:17;;;;;;;9.35;7.82;;;15.00;65.80;;;13.67;64.58;96372.03;5006608;28;20199;-67
2021/06/03 02:21:43;;;;;;;9.88;7.63;;;14.90;66.10;;;13.57;63.87;96371.59;4989529;28;20038;-66
2021/06/03 02:24:09;;;;;;;7.88;7.07;;;14.80;66.80;;;13.51;64.33;96377.69;5004708;28;20367;-66
2021/06/03 02:26:36;;;;;;;13.38;7.57;;;14.70;67.30;;;13.47;63.77;96377.28;4971698;28;20048;-67
2021/06/03 02:29:02;;;;;;;11.35;7.28;;;14.70;67.40;;;13.40;63.75;96376.47;4989231;28;20346;-65
2021/06/03 02:31:28;;;;;;;12.38;7.03;;;14.60;67.80;;;13.38;63.87;96384.59;4988496;28;20057;-66
2021/06/03 02:33:54;;;;;;;10.52;7.18;;;14.60;67.60;;;13.35;64.18;96387.66;5007066;28;20041;-67
2021/06/03 02:36:20;;;;;;;9.65;7.43;;;14.60;68.00;;;13.31;64.13;96385.56;4989994;28;20034;-67
2021/06/03 02:38:46;;;;;;;8.77;6.53;;;14.50;68.20;;;13.27;65.00;96379.88;5004830;28;20500;-66
2021/06/03 02:41:12;;;;;;;9.10;6.15;;;14.50;68.40;;;13.24;64.60;96382.91;5020493;28;20038;-67
2021/06/03 02:43:44;;;;;;;7.88;6.30;;;14.50;68.10;;;13.21;66.08;96371.94;5003319;28;20537;-66
2021/06/03 02:46:10;;;;;;;9.88;6.63;;;14.50;68.30;;;13.20;65.29;96376.41;5007645;28;20026;-66
2021/06/03 02:48:35;;;;;;;7.47;6.38;;;14.50;68.40;;;13.18;64.86;96378.44;5009654;28;20085;-66
2021/06/03 02:51:02;;;;;;;8.57;6.45;;;14.40;68.60;;;13.17;65.20;96376.78;4987497;28;20774;-66
2021/06/03 02:53:28;;;;;;;8.88;6.38;;;14.40;68.70;;;13.19;64.61;96388.00;4973874;28;20031;-67
2021/06/03 02:55:53;;;;;;;7.97;6.80;;;14.40;68.60;;;13.20;65.11;96396.72;5006084;28;20108;-66
2021/06/03 02:58:19;;;;;;;10.10;6.20;;;14.40;68.80;;;13.18;65.22;96394.28;5010018;28;20026;-66
2021/06/03 03:00:45;;;;;;;8.43;6.75;;;14.30;69.00;;;13.16;64.81;96393.63;5005635;28;20084;-66
2021/06/03 03:03:11;;;;;;;8.82;6.70;;;14.30;69.00;;;13.12;64.87;96400.31;5009628;28;20029;-66
2021/06/03 03:05:38;;;;;;;8.25;6.57;;;14.40;69.00;;;13.10;65.70;96402.34;4990075;28;20130;-66
2021/06/03 03:08:04;;;;;;;8.82;6.85;;;14.40;69.10;;;13.07;65.67;96408.00;4989662;28;20829;-66
2021/06/03 03:10:44;;;;;;;7.30;6.55;;;14.30;69.20;;;13.05;66.95;96410.03;4985248;28;20493;-67
2021/06/03 03:13:10;;;;;;;11.02;7.38;;;14.30;69.30;;;13.06;65.67;96416.94;4993652;28;20106;-67
2021/06/03 03:15:36;;;;;;;11.43;7.35;;;14.20;69.30;;;13.05;65.74;96410.03;5007450;28;20049;-66
2021/06/03 03:18:04;;;;;;;9.77;7.88;;;14.30;69.40;;;13.00;65.56;96408.00;5007331;28;20129;-66
2021/06/03 03:20:30;;;;;;;11.05;7.78;;;14.20;69.40;;;12.98;66.22;96404.72;4990485;28;20030;-67
2021/06/03 03:22:56;;;;;;;10.85;7.85;;;14.20;69.50;;;12.98;66.52;96403.91;4991773;28;20038;-65
2021/06/03 03:25:22;;;;;;;10.75;8.30;;;14.30;69.60;;;12.99;65.74;96408.19;5000389;28;20037;-66
2021/06/03 03:27:49;;;;;;;11.18;8.68;;;14.20;69.50;;;12.99;66.29;96405.53;4986487;28;20026;-67
2021/06/03 03:30:16;;;;;;;10.63;8.60;;;14.20;69.60;;;12.98;66.78;96415.28;4986063;28;20035;-66
2021/06/03 03:32:42;;;;;;;11.95;8.15;;;14.30;69.70;;;12.97;66.53;96415.50;4968158;28;21224;-66
2021/06/03 03:35:09;;;;;;;13.93;8.95;;;14.20;69.70;;;12.96;66.56;96414.69;4987780;28;20125;-66
2021/06/03 03:37:35;;;;;;;11.50;8.80;;;14.30;69.90;;;12.98;66.29;96419.75;5000775;28;20096;-66
2021/06/03 03:40:01;;;;;;;12.10;8.30;;;14.20;70.00;;;12.97;66.29;96423.41;5004943;28;20181;-66
2021/06/03 03:42:27;;;;;;;11.32;8.52;;;14.20;70.10;;;12.99;66.34;96418.75;4985592;28;20497;-67
2021/06/03 03:44:53;;;;;;;11.65;8.65;;;14.20;70.20;;;13.00;66.67;96425.66;4993009;28;20030;-66
2021/06/03 03:47:19;;;;;;;10.77;8.57;;;14.30;70.20;;;13.02;67.04;96423.63;4991146;28;20348;-66
2021/06/03 03:49:45;;;;;;;10.73;8.18;;;14.30;70.10;;;13.03;66.87;96431.34;5005396;28;20029;-65
2021/06/03 03:52:10;;;;;;;11.30;8.98;;;14.40;70.20;;;13.03;66.74;96422.63;4996461;28;20045;-66
2021/06/03 03:54:36;;;;;;;14.73;11.35;;;14.40;70.10;;;13.06;66.95;96435.44;4977204;28;20034;-66
2021/06/03 03:57:02;;;;;;;15.63;10.85;;;14.40;70.20;;;13.08;66.61;96431.56;4982890;28;20097;-65
2021/06/03 03:59:28;;;;;;;13.50;10.35;;;14.50;70.10;;;13.11;67.26;96433.00;5004598;28;20046;-66
2021/06/03 04:01:54;;;;;;;13.15;9.77;;;14.50;70.10;;;13.14;67.19;96435.28;4982044;28;20045;-66
2021/06/03 04:04:21;;;;;;;11.27;9.35;;;14.60;69.90;;;13.17;66.83;96434.88;5008176;28;20030;-67
2021/06/03 04:06:47;;;;;;;11.30;9.27;;;14.60;69.70;;;13.22;66.96;96436.97;4990580;28;20058;-67
2021/06/03 04:09:13;;;;;;;12.15;9.32;;;14.60;69.90;;;13.24;67.45;96443.69;4976454;28;20042;-67
2021/06/03 04:11:39;;;;;;;11.55;9.00;;;14.70;70.10;;;13.29;67.73;96443.91;4988141;28;20033;-67
2021/06/03 04:14:05;;;;;;;12.57;9.60;;;14.80;70.40;;;13.36;67.69;96442.13;5003258;28;20037;-67
2021/06/03 04:16:31;;;;;;;12.43;9.63;;;14.80;70.00;;;13.42;67.35;96446.59;4989167;28;20034;-67
2021/06/03 04:18:56;;;;;;;12.48;8.90;;;14.80;69.80;;;13.46;67.55;96445.19;5006735;28;20103;-67
2021/06/03 04:21:22;;;;;;;10.70;8.57;;;15.00;69.60;;;13.49;67.36;96446.63;5007295;28;20026;-67
2021/06/03 04:23:48;;;;;;;9.82;8.13;;;15.00;69.20;;;13.55;67.29;96448.44;4989390;28;20354;-67
2021/06/03 04:26:14;;;;;;;12.02;8.65;;;15.10;68.90;;;13.60;66.89;96458.44;4987736;28;20030;-67
2021/06/03 04:28:39;;;;;;;11.68;8.18;;;15.10;68.10;;;13.62;66.48;96464.34;4979020;28;20026;-66
2021/06/03 04:31:05;;;;;;;9.75;7.45;;;15.10;68.20;;;13.65;66.39;96463.94;5003949;28;20041;-67
2021/06/03 04:33:31;;;;;;;8.98;7.45;;;15.10;67.00;;;13.68;66.08;96458.25;4984677;28;20050;-66
2021/06/03 04:35:57;;;;;;;9.23;7.18;;;15.10;66.60;;;13.72;65.88;96464.78;4985222;28;20525;-66
2021/06/03 04:38:22;;;;;;;11.15;8.13;;;15.10;66.50;;;13.74;65.30;96466.19;4995960;28;20026;-65
2021/06/03 04:40:48;;;;;;;8.90;7.18;;;15.10;66.50;;;13.76;65.81;96466.00;5005918;28;20073;-67
2021/06/03 04:43:14;;;;;;;10.25;7.35;;;15.20;66.60;;;13.80;66.29;96464.59;4988647;28;20548;-67
2021/06/03 04:45:40;;;;;;;9.50;7.75;;;15.30;67.40;;;13.85;66.52;96470.09;4992188;28;20022;-68
2021/06/03 04:48:07;;;;;;;9.75;6.97;;;15.40;67.60;;;13.93;66.13;96477.03;5004569;28;20034;-72
2021/06/03 04:50:33;;;;;;;12.15;6.90;;;15.50;67.40;;;13.98;65.58;96478.06;5002278;28;20036;-75
2021/06/03 04:52:59;;;;;;;12.77;7.20;;;15.50;66.80;;;14.06;66.24;96477.06;4974307;28;21923;-77
2021/06/03 04:55:25;;;;;;;9.20;7.53;;;15.60;65.80;;;14.15;65.63;96475.03;5019724;28;20057;-76
2021/06/03 04:57:52;;;;;;;26.23;21.38;;;15.70;65.20;;;14.22;64.82;96475.84;4990770;28;20034;-77
2021/06/03 05:00:23;;;;;;;18.90;13.35;;;15.90;64.70;;;14.32;65.19;96481.56;4988803;28;20121;-72
2021/06/03 05:02:48;;;;;;;8.50;6.97;;;16.00;64.70;;;14.41;65.20;96483.00;4999155;28;20501;-77
2021/06/03 05:05:15;;;;;;;12.27;9.07;;;16.10;63.30;;;14.52;64.22;96479.78;4986796;28;20056;-75
2021/06/03 05:07:41;;;;;;;7.50;6.25;;;16.20;63.00;;;14.61;63.30;96480.38;4978237;28;20026;-76
2021/06/03 05:10:08;;;;;;;8.40;5.82;;;16.20;61.60;;;14.66;62.70;96478.72;4989844;28;20038;-77
2021/06/03 05:12:33;;;;;;;8.02;5.53;;;16.20;60.50;;;14.70;62.99;96479.94;4986530;28;20157;-77
2021/06/03 05:14:59;;;;;;;10.18;5.68;;;16.20;60.50;;;14.79;62.55;96490.34;5000174;28;20036;-77
2021/06/03 05:17:25;;;;;;;6.38;5.20;;;16.30;60.60;;;14.85;63.00;96497.47;4973021;28;20026;-73
2021/06/03 05:19:51;;;;;;;6.28;4.95;;;16.40;60.60;;;14.93;61.82;96494.59;4991337;28;20041;-67
2021/06/03 05:22:16;;;;;;;7.28;5.32;;;16.50;60.50;;;15.01;62.96;96491.75;5007304;28;20040;-68
2021/06/03 05:24:42;;;;;;;6.60;5.25;;;16.60;60.90;;;15.08;61.28;96495.19;4987054;28;20441;-66
2021/06/03 05:27:08;;;;;;;7.75;5.30;;;16.60;60.80;;;15.14;61.40;96502.28;4998740;28;20109;-67
2021/06/03 05:29:34;;;;;;;7.18;4.75;;;16.60;60.60;;;15.23;62.04;96500.25;4989319;28;20034;-67
2021/06/03 05:32:00;;;;;;;6.70;5.18;;;16.90;61.50;;;15.28;61.28;96498.59;4988750;28;20033;-67
2021/06/03 05:34:25;;;;;;;8.70;5.53;;;16.90;61.30;;;15.36;62.72;96497.53;4989097;28;20023;-67
2021/06/03 05:36:51;;;;;;;8.35;5.18;;;17.00;61.90;;;15.43;62.43;96495.72;4998607;28;20034;-67
2021/06/03 05:39:17;;;;;;;6.57;5.05;;;17.10;61.70;;;15.53;62.20;96497.91;5005758;28;20105;-67
2021/06/03 05:41:43;;;;;;;11.93;8.50;;;17.30;61.70;;;15.64;62.84;96504.44;4991917;28;20030;-67
2021/06/03 05:44:10;;;;;;;9.43;7.75;;;17.60;60.70;;;15.79;62.74;96499.66;4992227;28;20477;-68
2021/06/03 05:46:36;;;;;;;10.00;5.85;;;17.90;60.50;;;15.96;62.17;96506.09;4971427;28;20022;-67
2021/06/03 05:49:05;;;;;;;6.85;4.93;;;18.20;59.70;;;16.18;62.32;96501.28;4990686;28;20034;-68
2021/06/03 05:51:31;;;;;;;12.35;4.38;;;18.60;58.40;;;16.41;61.51;96498.88;4972580;28;20102;-67
2021/06/03 05:53:57;;;;;;;6.03;4.45;;;18.90;56.20;;;16.63;61.79;96501.16;4983242;28;20114;-67
2021/06/03 05:56:24;;;;;;;6.32;4.43;;;19.20;55.70;;;16.84;61.05;96508.78;4996158;28;20037;-67
2021/06/03 05:58:51;;;;;;;6.45;4.55;;;19.50;55.10;;;17.09;61.05;96512.22;4989600;28;20050;-72
2021/06/03 06:01:17;;;;;;;7.45;6.10;;;19.80;55.10;;;17.31;60.59;96503.81;4989821;28;20478;-71
2021/06/03 06:03:47;;;;;;;8.95;4.88;;;19.90;55.00;;;17.53;60.62;96515.63;4991141;28;20120;-73
2021/06/03 06:08:41;;;;;;;6.18;4.30;;;20.10;52.70;;;17.83;58.98;96513.03;5005527;28;20219;-74
2021/06/03 06:11:07;;;;;;;5.53;4.28;;;20.10;52.80;;;17.96;58.19;96512.06;5011008;28;20025;-76
2021/06/03 06:13:33;;;;;;;5.38;4.10;;;20.20;52.40;;;18.03;58.81;96515.44;4993146;28;20034;-75
2021/06/03 06:15:59;;;;;;;5.78;4.35;;;20.20;53.20;;;18.15;57.73;96518.97;4992576;28;20038;-67
2021/06/03 06:18:25;;;;;;;5.63;3.97;;;20.50;52.60;;;18.30;58.19;96514.03;4990550;28;20128;-74
2021/06/03 06:20:50;;;;;;;7.70;3.80;;;20.80;52.30;;;18.46;57.93;96519.75;4963845;28;20053;-76
2021/06/03 06:23:16;;;;;;;6.38;4.45;;;21.00;51.70;;;18.59;57.20;96524.88;4972418;28;20042;-76
2021/06/03 06:25:43;;;;;;;5.70;4.47;;;21.10;51.20;;;18.73;56.79;96526.31;5010051;28;20039;-73
2021/06/03 06:28:13;;;;;;;5.82;4.53;;;21.10;50.70;;;18.80;56.30;96521.72;4978295;28;20042;-74
2021/06/03 06:30:39;;;;;;;5.78;4.60;;;21.10;50.90;;;18.88;56.44;96523.22;4977854;28;20061;-73
2021/06/03 06:33:05;;;;;;;5.22;4.30;;;21.30;50.80;;;18.94;56.71;96525.75;4991296;28;20030;-72
2021/06/03 06:35:31;;;;;;;12.10;8.52;;;21.10;51.30;;;19.01;56.46;96532.81;5012371;28;20041;-74
2021/06/03 06:37:57;;;;;;;5.85;4.88;;;21.20;51.40;;;19.05;56.01;96542.00;4991913;28;20124;-75
2021/06/03 06:40:23;;;;;;;6.00;4.30;;;21.10;51.70;;;19.11;55.85;96535.75;4992446;28;20035;-70
2021/06/03 06:42:55;;;;;;;6.90;5.00;;;21.20;51.90;;;19.16;56.89;96536.66;4976927;28;20049;-67
2021/06/03 06:45:26;;;;;;;7.32;4.40;;;21.30;52.60;;;19.18;55.30;96533.75;4995794;28;20148;-74
2021/06/03 06:47:52;;;;;;;9.02;4.90;;;21.00;52.00;;;19.17;56.31;96542.81;5011308;28;20030;-75
2021/06/03 06:50:18;;;;;;;7.65;4.22;;;21.00;52.60;;;19.18;55.92;96536.44;4995636;28;20040;-78
2021/06/03 06:52:44;;;;;;;5.30;4.55;;;21.10;52.80;;;19.28;56.08;96542.00;4994363;28;20042;-77
2021/06/03 06:55:10;;;;;;;6.97;4.60;;;21.30;52.80;;;19.33;56.48;96533.31;4994133;28;20053;-67
2021/06/03 06:57:36;;;;;;;6.10;4.88;;;21.30;52.60;;;19.34;56.14;96546.41;5011243;28;20400;-67
2021/06/03 07:00:09;;;;;;;5.57;4.50;;;21.20;52.40;;;19.37;55.38;96545.13;5010658;28;20033;-67
2021/06/03 07:02:35;;;;;;;7.32;4.93;;;21.50;52.70;;;19.37;56.57;96551.28;4996012;28;20030;-72
2021/06/03 07:05:01;;;;;;;6.38;5.10;;;21.30;53.40;;;19.43;56.55;96547.66;4978111;28;20037;-73
2021/06/03 07:07:26;;;;;;;5.97;4.55;;;21.50;53.70;;;19.51;56.50;96552.66;4991910;28;20590;-67
2021/06/03 07:09:52;;;;;;;5.38;4.15;;;22.10;53.70;;;19.69;56.78;96542.91;5005372;28;20026;-68
2021/06/03 07:12:18;;;;;;;6.10;4.57;;;22.60;52.20;;;19.90;56.86;96552.94;4975994;28;20108;-68
2021/06/03 07:14:44;;;;;;;6.15;4.20;;;22.90;51.60;;;20.05;56.99;96550.59;4989573;28;20058;-68
2021/06/03 07:17:09;;;;;;;7.22;4.13;;;22.90;50.50;;;20.26;57.05;96548.31;5011077;28;20100;-68
2021/06/03 07:19:35;;;;;;;4.22;3.78;;;23.50;51.00;;;20.52;56.79;96553.09;4993863;28;20100;-67
2021/06/03 07:22:01;;;;;;;6.55;3.75;;;23.80;49.20;;;20.73;56.26;96555.06;4978721;28;20445;-69
2021/06/03 07:24:27;;;;;;;5.97;4.03;;;23.90;47.60;;;20.97;54.85;96554.91;4979058;28;20022;-68
2021/06/03 07:26:53;;;;;;;5.40;3.35;;;24.10;46.30;;;21.15;55.08;96546.63;4970034;28;20120;-69
2021/06/03 07:29:18;;;;;;;6.47;3.50;;;24.50;46.50;;;21.37;54.58;96550.22;4974897;28;20049;-69
2021/06/03 07:31:44;;;;;;;7.53;3.22;;;24.80;45.80;;;21.64;54.60;96555.66;4991616;28;20394;-68
2021/06/03 07:34:10;;;;;;;4.07;3.10;;;25.10;44.60;;;21.90;54.07;96558.66;4991568;28;20451;-69
2021/06/03 07:36:35;;;;;;;5.97;3.75;;;25.40;44.90;;;22.11;53.25;96554.38;4975536;28;20337;-68
2021/06/03 07:39:04;;;;;;;6.20;4.35;;;25.80;43.60;;;22.35;52.83;96562.94;4974300;28;20100;-68
2021/06/03 07:41:30;;;;;;;5.32;4.20;;;26.10;43.10;;;22.57;52.64;96553.81;4991668;28;20339;-69
2021/06/03 07:43:55;;;;;;;4.47;3.33;;;26.40;42.40;;;22.76;51.67;96556.13;4991172;28;20034;-68
2021/06/03 07:46:21;;;;;;;4.13;3.00;;;26.50;41.80;;;22.98;51.53;96554.19;4978193;28;20042;-69
2021/06/03 07:48:47;;;;;;;6.65;3.35;;;26.80;42.10;;;23.20;51.42;96562.16;4982219;28;20101;-68
2021/06/03 07:51:13;;;;;;;7.00;4.13;;;26.80;40.20;;;23.37;50.23;96557.44;5009832;28;20396;-68
2021/06/03 07:53:39;;;;;;;4.90;4.25;;;27.00;40.70;;;23.59;50.50;96551.97;4978308;28;20025;-68
2021/06/03 07:56:05;;;;;;;5.95;4.05;;;27.40;40.20;;;23.81;49.83;96558.00;4974170;28;20486;-68
2021/06/03 07:58:31;;;;;;;6.70;5.40;;;27.60;39.70;;;24.01;50.16;96546.53;4975025;28;20390;-69
2021/06/03 08:00:56;;;;;;;8.52;4.95;;;27.90;40.10;;;24.23;49.70;96551.69;4973990;28;20088;-69
2021/06/03 08:03:22;;;;;;;3.85;3.30;;;28.10;38.40;;;24.41;48.29;96556.59;4974804;28;20069;-67
2021/06/03 08:05:48;;;;;;;5.43;3.92;;;27.80;38.00;;;24.60;48.81;96558.78;4991058;28;20417;-68
2021/06/03 08:08:13;;;;;;;5.63;3.38;;;28.30;39.20;;;24.77;47.98;96551.28;4959051;28;20030;-68
2021/06/03 08:10:41;;;;;;;7.38;4.47;;;28.20;37.20;;;24.93;46.55;96552.13;4990520;28;20022;-68
2021/06/03 08:13:09;;;;;;;6.18;3.13;;;28.60;37.20;;;25.12;46.77;96549.69;4991385;28;20026;-68
2021/06/03 08:15:37;;;;;;;15.23;12.85;;;28.70;36.60;;;25.28;46.52;96552.09;4978518;28;20026;-68
2021/06/03 08:18:03;;;;;;;12.90;10.00;;;28.80;36.40;;;25.51;46.38;96550.72;4989643;28;20405;-68
2021/06/03 08:20:44;;;;;;;5.90;4.60;;;29.20;36.90;;;25.78;44.07;96553.09;4990375;28;20026;-68
2021/06/03 08:23:12;;;;;;;7.82;3.47;;;29.50;36.40;;;26.00;45.54;96551.94;4990232;28;20029;-68
2021/06/03 08:25:37;;;;;;;5.15;3.50;;;29.70;35.50;;;26.18;45.49;96549.44;4990639;28;20027;-68
2021/06/03 08:28:03;;;;;;;10.00;7.55;;;29.70;36.20;;;26.41;44.83;96544.50;4999597;28;20404;-68
2021/06/03 08:30:29;;;;;;;6.75;5.07;;;30.10;35.90;;;26.66;44.21;96541.63;4990461;28;20037;-68
2021/06/03 08:32:56;;;;;;;4.57;4.07;;;30.20;34.80;;;26.88;43.54;96545.78;4973078;28;20383;-69
2021/06/03 08:35:23;;;;;;;7.53;5.35;;;30.20;34.30;;;27.06;43.48;96542.44;4957626;28;20431;-68
2021/06/03 08:37:52;;;;;;;4.20;3.38;;;30.50;34.30;;;27.25;41.49;96551.47;4990205;28;20040;-68
2021/06/03 08:40:21;;;;;;;6.43;3.50;;;30.40;34.40;;;27.37;41.59;96545.66;4974129;28;20113;-68
2021/06/03 08:42:51;;;;;;;4.78;3.10;;;30.50;34.30;;;27.52;40.48;96548.22;4974029;28;20568;-68
2021/06/03 08:45:17;;;;;;;8.15;3.20;;;30.60;34.10;;;27.65;41.95;96547.59;4992428;28;20936;-68
2021/06/03 08:47:43;;;;;;;6.28;2.67;;;30.80;34.80;;;27.86;42.11;96548.16;4993272;28;20046;-68
2021/06/03 08:50:10;;;;;;;9.75;7.20;;;31.10;35.30;;;28.00;41.75;96546.34;4989553;28;20446;-68
2021/06/03 08:52:35;;;;;;;3.67;2.95;;;31.10;34.50;;;28.14;41.15;96548.38;4972195;28;20105;-68
2021/06/03 08:55:07;;;;;;;4.47;3.00;;;31.10;33.10;;;28.23;38.47;96554.72;4973753;28;20466;-68
2021/06/03 08:57:32;;;;;;;3.17;2.88;;;31.20;32.50;;;28.28;39.96;96550.09;4989780;28;20034;-69
2021/06/03 08:59:58;;;;;;;4.97;2.65;;;31.30;32.70;;;28.44;39.87;96547.97;4989524;28;20035;-68
2021/06/03 09:02:24;;;;;;;3.70;2.80;;;31.60;33.60;;;28.60;40.15;96551.28;4990141;28;20105;-68
2021/06/03 09:04:50;;;;;;;3.80;2.90;;;32.00;32.90;;;28.73;38.78;96541.59;4985065;28;20157;-67
2021/06/03 09:07:35;;;;;;;4.32;2.90;;;31.90;31.20;;;28.78;36.59;96546.97;5010322;28;20030;-68
2021/06/03 09:10:31;;;;;;;3.42;2.65;;;31.50;30.80;;;28.88;36.72;96549.53;4976375;28;20885;-69
2021/06/03 09:13:13;;;;;;;4.32;2.47;;;31.90;31.50;;;28.96;36.57;96548.84;5009993;28;20405;-68
2021/06/03 09:15:48;;;;;;;3.95;2.83;;;32.10;31.60;;;29.00;37.04;96549.91;4973617;28;20069;-68
2021/06/03 09:18:13;;;;;;;2.97;2.60;;;32.10;31.50;;;29.11;38.21;96543.19;4957368;28;20046;-68
2021/06/03 09:20:43;;;;;;;8.07;5.10;;;32.20;31.80;;;29.29;37.52;96541.53;4989243;28;20113;-68
2021/06/03 09:23:25;;;;;;;9.73;6.67;;;32.60;31.70;;;29.52;36.32;96539.81;4989234;28;20036;-68
2021/06/03 09:25:51;;;;;;;5.88;3.38;;;32.90;30.10;;;29.67;37.98;96533.31;4972826;28;20030;-68
2021/06/03 09:28:18;;;;;;;5.78;2.40;;;33.10;30.90;;;29.91;37.57;96543.97;4989773;28;20026;-68
2021/06/03 09:30:55;;;;;;;5.22;4.25;;;33.50;31.00;;;30.17;37.38;96534.22;4989107;28;20066;-68
2021/06/03 09:33:39;;;;;;;7.13;5.05;;;33.70;31.70;;;30.43;35.82;96531.75;4989133;28;20073;-68
2021/06/03 09:36:06;;;;;;;7.90;4.75;;;34.00;30.30;;;30.61;36.82;96527.31;4942696;28;20030;-68
2021/06/03 09:38:32;;;;;;;3.92;2.60;;;34.10;29.80;;;30.81;36.36;96526.03;5008337;28;20065;-67
2021/06/03 09:40:58;;;;;;;3.97;2.90;;;34.50;29.40;;;30.97;35.77;96519.91;4974594;28;20062;-68
2021/06/03 09:43:24;;;;;;;3.55;3.05;;;34.60;28.40;;;31.15;35.35;96528.97;4991206;28;20118;-73
2021/06/03 09:46:01;;;;;;;3.65;2.70;;;34.70;28.50;;;31.27;34.05;96525.72;4988978;28;20068;-72
2021/06/03 09:48:39;;;;;;;5.38;2.70;;;34.70;28.20;;;31.44;34.17;96530.44;4976137;28;20026;-75
2021/06/03 09:51:25;;;;;;;4.78;3.47;;;34.90;28.60;;;31.66;33.13;96531.19;4998633;28;20034;-75
2021/06/03 09:54:00;;;;;;;9.25;7.40;;;35.30;28.10;;;31.81;33.52;96534.66;5008084;28;20038;-73
2021/06/03 09:56:29;;;;;;;11.90;6.82;;;35.50;27.60;;;31.98;33.83;96526.53;5003990;28;20038;-74
2021/06/03 09:58:55;;;;;;;3.17;2.60;;;35.80;27.00;;;32.20;34.93;96522.91;4997519;28;20041;-72
2021/06/03 10:01:42;;;;;;;4.82;2.75;;;36.30;26.90;;;32.49;32.53;96525.88;4956135;28;20026;-73
2021/06/03 10:04:09;;;;;;;4.88;3.70;;;36.60;26.30;;;32.85;33.60;96528.31;5005220;28;20029;-73
2021/06/03 10:07:00;;;;;;;10.50;6.93;;;37.00;24.10;;;33.23;31.61;96526.78;4976039;28;20362;-74
2021/06/03 10:09:51;;;;;;;3.20;2.78;;;37.20;25.00;;;33.64;30.92;96537.94;5007873;28;20115;-67
2021/06/03 10:12:23;;;;;;;3.83;2.75;;;37.40;25.10;;;33.98;30.22;96531.56;5006296;28;20041;-67
2021/06/03 10:14:50;;;;;;;8.07;7.28;;;37.70;25.10;;;34.23;31.88;96526.28;5009382;28;20037;-69
2021/06/03 10:17:19;;;;;;;4.57;3.10;;;38.00;24.90;;;34.51;29.17;96527.41;4991420;28;20041;-68
2021/06/03 10:19:46;;;;;;;5.28;2.92;;;38.40;23.20;;;34.78;29.79;96525.28;4991639;28;20050;-68
2021/06/03 10:22:18;;;;;;;3.75;3.30;;;38.50;22.60;;;35.05;27.42;96523.94;4972208;28;20034;-69